WEATHER DATA

TODAY
Time Temp. Dewp. Hum. Bar.
00:03 -0.8 -4.1 76 1025.3
00:13 -0.9 -4.2 76 1025
00:22 -0.9 -4.2 76 1025.1
00:33 -1 -4.3 76 1025.1
00:43 -1.2 -4.3 77 1025.1
00:53 -1.5 -4.6 77 1025
01:03 -1.8 -4.7 78 1024.9
01:13 -1.8 -4.7 78 1025.1
01:23 -1.7 -4.5 79 1025.1
01:33 -1.7 -4.5 79 1025.1
01:46 -1.6 -4.3 80 1025
01:56 -1.7 -4.3 80 1025
02:07 -1.7 -4.3 80 1024.9
02:16 -1.6 -4.3 80 1025.1
02:26 -1.6 -4.3 80 1025.1
02:36 -1.6 -4.3 80 1025.1
02:47 -1.6 -4.3 80 1025.1
02:56 -1.6 -4.3 80 1024.9
03:06 -1.6 -4.1 81 1025
03:17 -1.6 -4.1 81 1025
03:27 -1.6 -4.1 81 1025.2
03:37 -1.6 -4.1 81 1024.9
03:47 -1.7 -4.2 81 1024.9
03:57 -1.7 -4.2 81 1024.8
04:07 -1.7 -4.2 81 1024.9
04:17 -1.7 -4.2 81 1025.1
04:28 -1.7 -4.2 81 1025.1
04:37 -1.7 -4.1 82 1025.1
04:47 -1.7 -4.1 82 1024.9
04:57 -1.8 -4.2 82 1024.9
05:08 -1.8 -4.2 82 1024.9
05:18 -1.8 -4.2 82 1024.9
05:27 -1.8 -4.2 82 1024.9
05:38 -1.8 -4.2 82 1025
05:48 -1.8 -4.2 82 1024.9
05:58 -1.8 -4.2 82 1024.8
06:08 -1.8 -4.2 82 1025
06:18 -1.8 -4.2 82 1025.1
06:28 -1.8 -4.2 82 1025
06:38 -1.9 -4.3 82 1025
06:49 -2.1 -4.6 81 1024.9
06:58 -2.2 -4.7 81 1024.8
07:08 -2.2 -4.5 82 1024.6
07:18 -2.2 -4.5 82 1024.5
07:29 -2.2 -4.7 81 1024.5
07:39 -2.2 -4.7 81 1024.5
07:48 -2.1 -4.6 81 1024.5
07:59 -2.2 -4.7 81 1024.7
08:09 -2.2 -4.7 81 1024.8
08:19 -2.2 -4.7 81 1024.7
08:29 -2.2 -4.7 81 1024.6
08:39 -2.3 -4.6 82 1024.7
08:59 -2.1 -4.5 82 1024.7
09:09 -2.1 -4.5 82 1024.9
09:34 -1.8 -4.2 82 1024.7
09:45 -1.8 -4.2 82 1024.9
09:55 -1.7 -4.1 82 1025
10:10 -1.7 -4.2 81 1024.9
10:20 -1.6 -4.1 81 1024.9
10:30 -1.6 -4.1 81 1025
10:40 -1.4 -3.8 82 1024.7
10:50 -1.1 -3.5 82 1024.8
11:00 -0.8 -3.3 81 1024.8
11:10 -0.7 -3.4 80 1024.6
11:20 -0.3 -2.8 81 1024.6
11:36 0.1 -2.7 79 1024.7
12:26 1.9 -1.7 76 1024.3
12:35 2.2 -1.6 75 1024.2
12:45 2.7 -1.3 74 1024.2
12:55 3.1 -1.3 72 1024
13:05 3.7 -0.9 71 1023.8
13:16 4.4 -0.5 70 1023.9
13:26 4.9 -0.6 67 1023.7
13:35 5.2 -0.6 66 1023.4
13:45 5.7 -0.5 64 1023.4
13:56 5.9 -0.7 62 1023.3
14:06 6.2 -0.9 60 1023.2
14:15 6.2 -1.1 59 1023
14:26 6 -1.2 59 1023
14:46 5.2 -1.7 60 1023
14:56 4.9 -1.9 60 1023
15:06 4.7 -1.9 61 1022.8
15:16 4.5 -1.9 62 1022.9
15:26 4.5 -2.1 61 1022.9
15:37 4.4 -2 62 1023
15:47 4.3 -2.1 62 1023.1
15:57 4.3 -2.1 62 1023.1
16:07 4.1 -2 63 1023.1
16:17 3.9 -2.2 63 1022.9
16:27 3.8 -2.3 63 1023
16:37 3.6 -2.5 63 1023
16:47 3.4 -2.3 65 1023.2
16:57 3.3 -2.2 66 1023.3
17:07 3.2 -2.2 66 1023.4
17:16 2.9 -2.3 67 1023.5
17:25 2.8 -2.4 67 1023.5
17:35 2.8 -2.2 68 1023.4
17:45 2.8 -2.2 68 1023.8
17:56 2.7 -2.5 67 1023.7
18:05 2.5 -2.5 68 1023.9
18:15 2.3 -2.8 67 1023.9
18:26 2 -3.1 67 1024.2

DAY STATISTIC

2022-01-27
TEMPERATURE
AVERAGE
0.3
HIGH
6.2
14:06
LOW
-2.3
08:39
PRESSURE
AVERAGE
1024.4
HIGH
1025.3
00:03
LOW
1022.8
15:06
DEWPOINT
AVERAGE
-3.4
HIGH
-0.5
13:16
LOW
-4.7
01:03
HUMIDITY
AVERAGE
75
HIGH
82
04:37
LOW
59
14:15
TEMPERATURE (°C)
LOW
-2.3
HIGH
6.2
AVERAGE
0.3
PRESSURE (hpa)
LOW
1022.8
HIGH
1025.3
AVERAGE
1024.4
DEVICE